sensor_id;sensor_type;location;lat;lon;timestamp;P1;durP1;ratioP1;P2;durP2;ratioP2
24729;SDS011;12832;52.392;13.066;2023-12-07T00:01:28;2.60;;;2.40;;
24729;SDS011;12832;52.392;13.066;2023-12-07T00:03:55;2.38;;;2.17;;
24729;SDS011;12832;52.392;13.066;2023-12-07T00:06:22;2.40;;;2.20;;
24729;SDS011;12832;52.392;13.066;2023-12-07T00:08:48;2.30;;;2.10;;
24729;SDS011;12832;52.392;13.066;2023-12-07T00:11:15;2.30;;;2.10;;
24729;SDS011;12832;52.392;13.066;2023-12-07T00:13:42;1.88;;;1.77;;
24729;SDS011;12832;52.392;13.066;2023-12-07T00:16:09;2.33;;;2.13;;
24729;SDS011;12832;52.392;13.066;2023-12-07T00:18:36;2.30;;;2.10;;
24729;SDS011;12832;52.392;13.066;2023-12-07T00:21:02;2.25;;;2.05;;
24729;SDS011;12832;52.392;13.066;2023-12-07T00:23:29;2.20;;;2.00;;
24729;SDS011;12832;52.392;13.066;2023-12-07T00:25:56;2.47;;;2.28;;
24729;SDS011;12832;52.392;13.066;2023-12-07T00:28:23;2.33;;;2.13;;
24729;SDS011;12832;52.392;13.066;2023-12-07T00:30:50;2.65;;;2.45;;
24729;SDS011;12832;52.392;13.066;2023-12-07T00:33:17;2.42;;;2.22;;
24729;SDS011;12832;52.392;13.066;2023-12-07T00:35:43;2.33;;;2.13;;
24729;SDS011;12832;52.392;13.066;2023-12-07T00:38:10;2.17;;;1.98;;
24729;SDS011;12832;52.392;13.066;2023-12-07T00:40:37;2.13;;;1.92;;
24729;SDS011;12832;52.392;13.066;2023-12-07T00:43:06;2.30;;;2.10;;
24729;SDS011;12832;52.392;13.066;2023-12-07T00:45:33;1.80;;;1.60;;
24729;SDS011;12832;52.392;13.066;2023-12-07T00:47:59;2.30;;;2.10;;
24729;SDS011;12832;52.392;13.066;2023-12-07T00:50:26;2.30;;;2.10;;
24729;SDS011;12832;52.392;13.066;2023-12-07T00:52:53;2.20;;;2.00;;
24729;SDS011;12832;52.392;13.066;2023-12-07T00:55:20;2.30;;;2.10;;
24729;SDS011;12832;52.392;13.066;2023-12-07T00:57:47;2.00;;;1.90;;
24729;SDS011;12832;52.392;13.066;2023-12-07T01:00:14;2.30;;;2.10;;
24729;SDS011;12832;52.392;13.066;2023-12-07T01:02:41;1.75;;;1.65;;
24729;SDS011;12832;52.392;13.066;2023-12-07T01:05:08;2.20;;;2.00;;
24729;SDS011;12832;52.392;13.066;2023-12-07T01:07:35;2.08;;;1.98;;
24729;SDS011;12832;52.392;13.066;2023-12-07T01:10:01;2.08;;;1.92;;
24729;SDS011;12832;52.392;13.066;2023-12-07T01:12:28;2.22;;;2.00;;
24729;SDS011;12832;52.392;13.066;2023-12-07T01:14:55;2.03;;;1.90;;
24729;SDS011;12832;52.392;13.066;2023-12-07T01:17:22;2.30;;;2.10;;
24729;SDS011;12832;52.392;13.066;2023-12-07T01:19:48;2.05;;;1.88;;
24729;SDS011;12832;52.392;13.066;2023-12-07T01:22:15;2.20;;;2.00;;
24729;SDS011;12832;52.392;13.066;2023-12-07T01:24:43;2.30;;;2.10;;
24729;SDS011;12832;52.392;13.066;2023-12-07T01:27:10;1.80;;;1.70;;
24729;SDS011;12832;52.392;13.066;2023-12-07T01:29:37;2.58;;;2.17;;
24729;SDS011;12832;52.392;13.066;2023-12-07T01:32:03;2.28;;;1.83;;
24729;SDS011;12832;52.392;13.066;2023-12-07T01:34:31;1.80;;;1.70;;
24729;SDS011;12832;52.392;13.066;2023-12-07T01:37:01;2.10;;;1.95;;
24729;SDS011;12832;52.392;13.066;2023-12-07T01:39:27;2.30;;;2.10;;
24729;SDS011;12832;52.392;13.066;2023-12-07T01:41:54;2.63;;;2.03;;
24729;SDS011;12832;52.392;13.066;2023-12-07T01:44:21;2.15;;;1.95;;
24729;SDS011;12832;52.392;13.066;2023-12-07T01:46:47;2.22;;;2.03;;
24729;SDS011;12832;52.392;13.066;2023-12-07T01:49:14;1.75;;;1.65;;
24729;SDS011;12832;52.392;13.066;2023-12-07T01:51:41;2.20;;;2.00;;
24729;SDS011;12832;52.392;13.066;2023-12-07T01:54:08;2.00;;;1.90;;
24729;SDS011;12832;52.392;13.066;2023-12-07T01:56:34;2.17;;;1.98;;
24729;SDS011;12832;52.392;13.066;2023-12-07T01:59:01;2.60;;;2.40;;
24729;SDS011;12832;52.392;13.066;2023-12-07T02:01:29;2.10;;;1.90;;
24729;SDS011;12832;52.392;13.066;2023-12-07T02:03:55;2.42;;;2.22;;
24729;SDS011;12832;52.392;13.066;2023-12-07T02:06:22;2.22;;;2.03;;
24729;SDS011;12832;52.392;13.066;2023-12-07T02:08:49;2.08;;;1.88;;
24729;SDS011;12832;52.392;13.066;2023-12-07T02:11:15;2.10;;;2.00;;
24729;SDS011;12832;52.392;13.066;2023-12-07T02:13:42;2.05;;;1.90;;
24729;SDS011;12832;52.392;13.066;2023-12-07T02:16:21;2.15;;;2.00;;
24729;SDS011;12832;52.392;13.066;2023-12-07T02:19:03;2.47;;;2.28;;
24729;SDS011;12832;52.392;13.066;2023-12-07T02:21:34;2.22;;;2.03;;
24729;SDS011;12832;52.392;13.066;2023-12-07T02:24:05;3.55;;;1.73;;
24729;SDS011;12832;52.392;13.066;2023-12-07T02:26:35;2.30;;;2.10;;
24729;SDS011;12832;52.392;13.066;2023-12-07T02:29:03;1.83;;;1.73;;
24729;SDS011;12832;52.392;13.066;2023-12-07T02:31:29;2.20;;;2.00;;
24729;SDS011;12832;52.392;13.066;2023-12-07T02:33:56;2.20;;;2.03;;
24729;SDS011;12832;52.392;13.066;2023-12-07T02:36:24;2.45;;;1.60;;
24729;SDS011;12832;52.392;13.066;2023-12-07T02:38:51;2.20;;;2.00;;
24729;SDS011;12832;52.392;13.066;2023-12-07T02:41:19;2.20;;;1.85;;
24729;SDS011;12832;52.392;13.066;2023-12-07T02:43:46;2.20;;;2.00;;
24729;SDS011;12832;52.392;13.066;2023-12-07T02:46:13;2.33;;;2.00;;
24729;SDS011;12832;52.392;13.066;2023-12-07T02:48:40;1.80;;;1.70;;
24729;SDS011;12832;52.392;13.066;2023-12-07T02:51:06;2.20;;;2.00;;
24729;SDS011;12832;52.392;13.066;2023-12-07T02:53:33;2.33;;;1.95;;
24729;SDS011;12832;52.392;13.066;2023-12-07T02:56:00;1.90;;;1.80;;
24729;SDS011;12832;52.392;13.066;2023-12-07T02:58:26;2.20;;;2.00;;
24729;SDS011;12832;52.392;13.066;2023-12-07T03:00:53;1.83;;;1.70;;
24729;SDS011;12832;52.392;13.066;2023-12-07T03:03:20;2.35;;;2.10;;
24729;SDS011;12832;52.392;13.066;2023-12-07T03:05:47;1.90;;;1.80;;
24729;SDS011;12832;52.392;13.066;2023-12-07T03:08:13;2.03;;;1.80;;
24729;SDS011;12832;52.392;13.066;2023-12-07T03:10:40;1.75;;;1.65;;
24729;SDS011;12832;52.392;13.066;2023-12-07T03:13:07;1.90;;;1.80;;
24729;SDS011;12832;52.392;13.066;2023-12-07T03:15:34;1.60;;;1.50;;
24729;SDS011;12832;52.392;13.066;2023-12-07T03:18:00;2.00;;;1.90;;
24729;SDS011;12832;52.392;13.066;2023-12-07T03:20:27;2.10;;;1.90;;
24729;SDS011;12832;52.392;13.066;2023-12-07T03:22:54;1.67;;;1.55;;
24729;SDS011;12832;52.392;13.066;2023-12-07T03:25:21;2.03;;;1.60;;
24729;SDS011;12832;52.392;13.066;2023-12-07T03:27:47;1.67;;;1.58;;
24729;SDS011;12832;52.392;13.066;2023-12-07T03:30:14;1.58;;;1.48;;
24729;SDS011;12832;52.392;13.066;2023-12-07T03:32:41;1.90;;;1.70;;
24729;SDS011;12832;52.392;13.066;2023-12-07T03:35:07;1.88;;;1.77;;
24729;SDS011;12832;52.392;13.066;2023-12-07T03:37:34;1.60;;;1.50;;
24729;SDS011;12832;52.392;13.066;2023-12-07T03:40:01;1.40;;;1.30;;
24729;SDS011;12832;52.392;13.066;2023-12-07T03:42:30;1.42;;;1.33;;
24729;SDS011;12832;52.392;13.066;2023-12-07T03:45:16;1.70;;;1.42;;
24729;SDS011;12832;52.392;13.066;2023-12-07T03:47:43;1.52;;;1.42;;
24729;SDS011;12832;52.392;13.066;2023-12-07T03:50:10;2.08;;;1.55;;
24729;SDS011;12832;52.392;13.066;2023-12-07T03:52:36;1.60;;;1.50;;
24729;SDS011;12832;52.392;13.066;2023-12-07T03:55:03;1.50;;;1.40;;
24729;SDS011;12832;52.392;13.066;2023-12-07T03:57:31;1.75;;;1.65;;
24729;SDS011;12832;52.392;13.066;2023-12-07T03:59:58;1.50;;;1.40;;
24729;SDS011;12832;52.392;13.066;2023-12-07T04:02:24;1.70;;;1.60;;
24729;SDS011;12832;52.392;13.066;2023-12-07T04:04:51;1.75;;;1.65;;
24729;SDS011;12832;52.392;13.066;2023-12-07T04:07:18;1.30;;;1.20;;
24729;SDS011;12832;52.392;13.066;2023-12-07T04:09:45;1.30;;;1.20;;
24729;SDS011;12832;52.392;13.066;2023-12-07T04:12:12;1.30;;;1.20;;
24729;SDS011;12832;52.392;13.066;2023-12-07T04:14:38;1.80;;;1.70;;
24729;SDS011;12832;52.392;13.066;2023-12-07T04:17:05;1.40;;;1.30;;
24729;SDS011;12832;52.392;13.066;2023-12-07T04:19:31;1.33;;;1.23;;
24729;SDS011;12832;52.392;13.066;2023-12-07T04:21:58;1.40;;;1.30;;
24729;SDS011;12832;52.392;13.066;2023-12-07T04:24:25;1.25;;;1.15;;
24729;SDS011;12832;52.392;13.066;2023-12-07T04:26:51;1.00;;;1.00;;
24729;SDS011;12832;52.392;13.066;2023-12-07T04:29:18;1.23;;;1.13;;
24729;SDS011;12832;52.392;13.066;2023-12-07T04:31:45;1.30;;;1.20;;
24729;SDS011;12832;52.392;13.066;2023-12-07T04:34:11;1.55;;;1.40;;
24729;SDS011;12832;52.392;13.066;2023-12-07T04:36:38;1.17;;;1.08;;
24729;SDS011;12832;52.392;13.066;2023-12-07T04:39:05;1.30;;;1.20;;
24729;SDS011;12832;52.392;13.066;2023-12-07T04:41:31;1.23;;;1.13;;
24729;SDS011;12832;52.392;13.066;2023-12-07T04:43:58;1.30;;;1.20;;
24729;SDS011;12832;52.392;13.066;2023-12-07T04:46:25;1.20;;;1.10;;
24729;SDS011;12832;52.392;13.066;2023-12-07T04:48:51;0.95;;;0.93;;
24729;SDS011;12832;52.392;13.066;2023-12-07T04:51:18;1.25;;;1.10;;
24729;SDS011;12832;52.392;13.066;2023-12-07T04:53:46;1.10;;;1.00;;
24729;SDS011;12832;52.392;13.066;2023-12-07T04:56:13;0.98;;;0.95;;
24729;SDS011;12832;52.392;13.066;2023-12-07T04:58:40;1.00;;;0.95;;
24729;SDS011;12832;52.392;13.066;2023-12-07T05:01:07;0.75;;;0.75;;
24729;SDS011;12832;52.392;13.066;2023-12-07T05:03:33;1.30;;;1.20;;
24729;SDS011;12832;52.392;13.066;2023-12-07T05:06:00;1.08;;;1.00;;
24729;SDS011;12832;52.392;13.066;2023-12-07T05:08:27;1.20;;;1.10;;
24729;SDS011;12832;52.392;13.066;2023-12-07T05:10:53;1.17;;;1.08;;
24729;SDS011;12832;52.392;13.066;2023-12-07T05:13:20;1.30;;;1.05;;
24729;SDS011;12832;52.392;13.066;2023-12-07T05:15:46;1.30;;;1.20;;
24729;SDS011;12832;52.392;13.066;2023-12-07T05:18:13;1.20;;;1.10;;
24729;SDS011;12832;52.392;13.066;2023-12-07T05:20:40;1.05;;;1.05;;
24729;SDS011;12832;52.392;13.066;2023-12-07T05:23:08;1.08;;;1.00;;
24729;SDS011;12832;52.392;13.066;2023-12-07T05:25:35;1.20;;;1.00;;
24729;SDS011;12832;52.392;13.066;2023-12-07T05:28:02;1.10;;;1.00;;
24729;SDS011;12832;52.392;13.066;2023-12-07T05:30:29;0.98;;;0.98;;
24729;SDS011;12832;52.392;13.066;2023-12-07T05:32:56;1.00;;;0.90;;
24729;SDS011;12832;52.392;13.066;2023-12-07T05:35:23;0.82;;;0.82;;
24729;SDS011;12832;52.392;13.066;2023-12-07T05:37:49;1.17;;;1.08;;
24729;SDS011;12832;52.392;13.066;2023-12-07T05:40:16;1.20;;;1.10;;
24729;SDS011;12832;52.392;13.066;2023-12-07T05:42:45;0.98;;;0.90;;
24729;SDS011;12832;52.392;13.066;2023-12-07T05:45:12;1.20;;;1.10;;
24729;SDS011;12832;52.392;13.066;2023-12-07T05:47:39;1.30;;;1.20;;
24729;SDS011;12832;52.392;13.066;2023-12-07T05:50:06;1.20;;;1.10;;
24729;SDS011;12832;52.392;13.066;2023-12-07T05:52:35;1.20;;;1.10;;
24729;SDS011;12832;52.392;13.066;2023-12-07T05:55:02;1.10;;;1.00;;
24729;SDS011;12832;52.392;13.066;2023-12-07T05:57:30;1.08;;;0.98;;
24729;SDS011;12832;52.392;13.066;2023-12-07T05:59:57;1.10;;;1.00;;
24729;SDS011;12832;52.392;13.066;2023-12-07T06:02:23;1.02;;;0.93;;
24729;SDS011;12832;52.392;13.066;2023-12-07T06:04:52;1.30;;;1.15;;
24729;SDS011;12832;52.392;13.066;2023-12-07T06:07:18;1.20;;;1.10;;
24729;SDS011;12832;52.392;13.066;2023-12-07T06:09:45;1.50;;;1.40;;
24729;SDS011;12832;52.392;13.066;2023-12-07T06:12:12;1.13;;;1.02;;
24729;SDS011;12832;52.392;13.066;2023-12-07T06:14:39;1.40;;;1.30;;
24729;SDS011;12832;52.392;13.066;2023-12-07T06:17:05;1.60;;;1.50;;
24729;SDS011;12832;52.392;13.066;2023-12-07T06:19:33;1.17;;;1.08;;
24729;SDS011;12832;52.392;13.066;2023-12-07T06:22:00;1.48;;;1.30;;
24729;SDS011;12832;52.392;13.066;2023-12-07T06:24:27;1.40;;;1.30;;
24729;SDS011;12832;52.392;13.066;2023-12-07T06:26:53;1.48;;;1.38;;
24729;SDS011;12832;52.392;13.066;2023-12-07T06:29:20;1.55;;;1.40;;
24729;SDS011;12832;52.392;13.066;2023-12-07T06:31:47;1.73;;;1.63;;
24729;SDS011;12832;52.392;13.066;2023-12-07T06:34:13;1.58;;;1.48;;
24729;SDS011;12832;52.392;13.066;2023-12-07T06:36:40;2.03;;;1.40;;
24729;SDS011;12832;52.392;13.066;2023-12-07T06:39:07;1.40;;;1.30;;
24729;SDS011;12832;52.392;13.066;2023-12-07T06:41:34;2.30;;;2.10;;
24729;SDS011;12832;52.392;13.066;2023-12-07T06:44:00;2.70;;;2.50;;
24729;SDS011;12832;52.392;13.066;2023-12-07T06:46:27;3.05;;;2.78;;
24729;SDS011;12832;52.392;13.066;2023-12-07T06:48:54;4.38;;;3.30;;
24729;SDS011;12832;52.392;13.066;2023-12-07T06:51:21;6.85;;;3.15;;
24729;SDS011;12832;52.392;13.066;2023-12-07T06:53:48;3.42;;;3.13;;
24729;SDS011;12832;52.392;13.066;2023-12-07T06:56:17;3.90;;;3.60;;
24729;SDS011;12832;52.392;13.066;2023-12-07T06:58:43;3.67;;;3.38;;
24729;SDS011;12832;52.392;13.066;2023-12-07T07:01:10;4.20;;;3.80;;
24729;SDS011;12832;52.392;13.066;2023-12-07T07:03:38;6.35;;;4.13;;
24729;SDS011;12832;52.392;13.066;2023-12-07T07:06:05;3.95;;;3.58;;
24729;SDS011;12832;52.392;13.066;2023-12-07T07:08:32;4.68;;;4.10;;
24729;SDS011;12832;52.392;13.066;2023-12-07T07:10:58;4.53;;;4.10;;
24729;SDS011;12832;52.392;13.066;2023-12-07T07:13:25;4.32;;;3.92;;
24729;SDS011;12832;52.392;13.066;2023-12-07T07:15:52;5.05;;;4.55;;
24729;SDS011;12832;52.392;13.066;2023-12-07T07:18:20;5.22;;;4.72;;
24729;SDS011;12832;52.392;13.066;2023-12-07T07:20:49;4.47;;;4.07;;
24729;SDS011;12832;52.392;13.066;2023-12-07T07:23:16;5.10;;;4.70;;
24729;SDS011;12832;52.392;13.066;2023-12-07T07:25:43;4.75;;;4.35;;
24729;SDS011;12832;52.392;13.066;2023-12-07T07:28:09;4.20;;;3.90;;
24729;SDS011;12832;52.392;13.066;2023-12-07T07:30:39;4.57;;;4.18;;
24729;SDS011;12832;52.392;13.066;2023-12-07T07:33:05;4.13;;;3.70;;
24729;SDS011;12832;52.392;13.066;2023-12-07T07:35:32;4.32;;;3.95;;
24729;SDS011;12832;52.392;13.066;2023-12-07T07:37:59;5.38;;;3.55;;
24729;SDS011;12832;52.392;13.066;2023-12-07T07:40:26;3.78;;;3.47;;
24729;SDS011;12832;52.392;13.066;2023-12-07T07:42:53;3.88;;;3.15;;
24729;SDS011;12832;52.392;13.066;2023-12-07T07:45:19;3.97;;;3.13;;
24729;SDS011;12832;52.392;13.066;2023-12-07T07:47:46;3.17;;;2.88;;
24729;SDS011;12832;52.392;13.066;2023-12-07T07:50:13;3.22;;;2.72;;
24729;SDS011;12832;52.392;13.066;2023-12-07T07:52:39;3.33;;;2.97;;
24729;SDS011;12832;52.392;13.066;2023-12-07T07:55:07;3.10;;;2.80;;
24729;SDS011;12832;52.392;13.066;2023-12-07T07:57:33;4.13;;;3.83;;
24729;SDS011;12832;52.392;13.066;2023-12-07T08:00:00;5.25;;;4.70;;
24729;SDS011;12832;52.392;13.066;2023-12-07T08:02:27;6.10;;;5.57;;
24729;SDS011;12832;52.392;13.066;2023-12-07T08:04:54;7.97;;;7.25;;
24729;SDS011;12832;52.392;13.066;2023-12-07T08:07:20;8.10;;;7.40;;
24729;SDS011;12832;52.392;13.066;2023-12-07T08:09:47;10.68;;;9.77;;
24729;SDS011;12832;52.392;13.066;2023-12-07T08:12:14;9.85;;;9.02;;
24729;SDS011;12832;52.392;13.066;2023-12-07T08:14:41;8.68;;;7.88;;
24729;SDS011;12832;52.392;13.066;2023-12-07T08:17:09;7.10;;;6.50;;
24729;SDS011;12832;52.392;13.066;2023-12-07T08:19:36;7.63;;;7.00;;
24729;SDS011;12832;52.392;13.066;2023-12-07T08:22:03;7.55;;;6.95;;
24729;SDS011;12832;52.392;13.066;2023-12-07T08:24:30;8.07;;;7.40;;
24729;SDS011;12832;52.392;13.066;2023-12-07T08:26:57;7.68;;;6.88;;
24729;SDS011;12832;52.392;13.066;2023-12-07T08:29:24;7.25;;;6.45;;
24729;SDS011;12832;52.392;13.066;2023-12-07T08:31:51;7.28;;;6.65;;
24729;SDS011;12832;52.392;13.066;2023-12-07T08:34:18;6.10;;;5.60;;
24729;SDS011;12832;52.392;13.066;2023-12-07T08:36:48;8.77;;;5.25;;
24729;SDS011;12832;52.392;13.066;2023-12-07T08:39:15;5.53;;;5.03;;
24729;SDS011;12832;52.392;13.066;2023-12-07T08:41:41;5.45;;;5.00;;
24729;SDS011;12832;52.392;13.066;2023-12-07T08:44:08;5.20;;;4.80;;
24729;SDS011;12832;52.392;13.066;2023-12-07T08:46:35;5.25;;;4.85;;
24729;SDS011;12832;52.392;13.066;2023-12-07T08:49:02;4.55;;;4.13;;
24729;SDS011;12832;52.392;13.066;2023-12-07T08:51:29;5.57;;;4.55;;
24729;SDS011;12832;52.392;13.066;2023-12-07T08:53:55;4.60;;;4.20;;
24729;SDS011;12832;52.392;13.066;2023-12-07T08:56:22;4.30;;;3.95;;
24729;SDS011;12832;52.392;13.066;2023-12-07T08:58:49;4.88;;;4.47;;
24729;SDS011;12832;52.392;13.066;2023-12-07T09:01:17;4.82;;;4.38;;
24729;SDS011;12832;52.392;13.066;2023-12-07T09:03:57;4.25;;;3.90;;
24729;SDS011;12832;52.392;13.066;2023-12-07T09:06:24;4.88;;;4.30;;
24729;SDS011;12832;52.392;13.066;2023-12-07T09:08:51;4.20;;;3.58;;
24729;SDS011;12832;52.392;13.066;2023-12-07T09:11:19;3.97;;;3.67;;
24729;SDS011;12832;52.392;13.066;2023-12-07T09:13:46;4.35;;;3.95;;
24729;SDS011;12832;52.392;13.066;2023-12-07T09:16:12;4.07;;;3.67;;
24729;SDS011;12832;52.392;13.066;2023-12-07T09:18:41;4.10;;;3.80;;
24729;SDS011;12832;52.392;13.066;2023-12-07T09:21:08;4.43;;;4.07;;
24729;SDS011;12832;52.392;13.066;2023-12-07T09:23:34;5.35;;;4.85;;
24729;SDS011;12832;52.392;13.066;2023-12-07T09:26:03;5.85;;;5.35;;
24729;SDS011;12832;52.392;13.066;2023-12-07T09:28:31;6.18;;;5.30;;
24729;SDS011;12832;52.392;13.066;2023-12-07T09:31:01;5.68;;;4.75;;
24729;SDS011;12832;52.392;13.066;2023-12-07T09:33:27;5.70;;;5.20;;
24729;SDS011;12832;52.392;13.066;2023-12-07T09:35:54;7.63;;;6.63;;
24729;SDS011;12832;52.392;13.066;2023-12-07T09:38:21;7.05;;;6.30;;
24729;SDS011;12832;52.392;13.066;2023-12-07T09:40:52;6.28;;;5.78;;
24729;SDS011;12832;52.392;13.066;2023-12-07T09:43:19;6.03;;;5.43;;
24729;SDS011;12832;52.392;13.066;2023-12-07T09:45:45;5.50;;;4.97;;
24729;SDS011;12832;52.392;13.066;2023-12-07T09:48:13;4.80;;;4.40;;
24729;SDS011;12832;52.392;13.066;2023-12-07T09:50:40;5.18;;;4.68;;
24729;SDS011;12832;52.392;13.066;2023-12-07T09:53:07;5.38;;;4.88;;
24729;SDS011;12832;52.392;13.066;2023-12-07T09:55:35;5.95;;;5.40;;
24729;SDS011;12832;52.392;13.066;2023-12-07T09:58:04;5.70;;;4.85;;
24729;SDS011;12832;52.392;13.066;2023-12-07T10:00:31;5.40;;;4.90;;
24729;SDS011;12832;52.392;13.066;2023-12-07T10:02:59;6.50;;;4.60;;
24729;SDS011;12832;52.392;13.066;2023-12-07T10:05:25;5.10;;;4.60;;
24729;SDS011;12832;52.392;13.066;2023-12-07T10:07:53;4.75;;;4.35;;
24729;SDS011;12832;52.392;13.066;2023-12-07T10:10:20;4.50;;;4.10;;
24729;SDS011;12832;52.392;13.066;2023-12-07T10:12:48;4.88;;;4.38;;
24729;SDS011;12832;52.392;13.066;2023-12-07T10:15:17;4.85;;;4.45;;
24729;SDS011;12832;52.392;13.066;2023-12-07T10:17:52;4.18;;;3.85;;
24729;SDS011;12832;52.392;13.066;2023-12-07T10:20:21;4.13;;;3.78;;
24729;SDS011;12832;52.392;13.066;2023-12-07T10:23:02;5.15;;;4.65;;
24729;SDS011;12832;52.392;13.066;2023-12-07T10:25:29;6.03;;;4.90;;
24729;SDS011;12832;52.392;13.066;2023-12-07T10:27:56;5.25;;;4.75;;
24729;SDS011;12832;52.392;13.066;2023-12-07T10:30:23;4.47;;;3.95;;
24729;SDS011;12832;52.392;13.066;2023-12-07T10:32:51;6.70;;;3.88;;
24729;SDS011;12832;52.392;13.066;2023-12-07T10:35:19;4.75;;;4.35;;
24729;SDS011;12832;52.392;13.066;2023-12-07T10:37:47;4.53;;;3.80;;
24729;SDS011;12832;52.392;13.066;2023-12-07T10:40:14;4.43;;;4.03;;
24729;SDS011;12832;52.392;13.066;2023-12-07T10:42:41;4.32;;;3.92;;
24729;SDS011;12832;52.392;13.066;2023-12-07T10:45:10;5.32;;;4.20;;
24729;SDS011;12832;52.392;13.066;2023-12-07T10:47:41;4.68;;;4.28;;
24729;SDS011;12832;52.392;13.066;2023-12-07T10:50:09;4.95;;;4.53;;
24729;SDS011;12832;52.392;13.066;2023-12-07T10:52:39;4.53;;;4.00;;
24729;SDS011;12832;52.392;13.066;2023-12-07T10:55:45;3.80;;;3.50;;
24729;SDS011;12832;52.392;13.066;2023-12-07T10:58:02;4.28;;;3.88;;
24729;SDS011;12832;52.392;13.066;2023-12-07T11:00:31;4.38;;;3.90;;
24729;SDS011;12832;52.392;13.066;2023-12-07T11:03:09;4.10;;;3.70;;
24729;SDS011;12832;52.392;13.066;2023-12-07T11:05:37;4.40;;;4.00;;
24729;SDS011;12832;52.392;13.066;2023-12-07T11:08:05;4.40;;;3.78;;
24729;SDS011;12832;52.392;13.066;2023-12-07T11:13:13;3.80;;;3.50;;
24729;SDS011;12832;52.392;13.066;2023-12-07T11:15:41;4.30;;;3.90;;
24729;SDS011;12832;52.392;13.066;2023-12-07T11:18:08;4.57;;;4.18;;
24729;SDS011;12832;52.392;13.066;2023-12-07T11:20:42;4.05;;;3.65;;
24729;SDS011;12832;52.392;13.066;2023-12-07T11:23:15;3.80;;;3.50;;
24729;SDS011;12832;52.392;13.066;2023-12-07T11:25:45;4.43;;;3.83;;
24729;SDS011;12832;52.392;13.066;2023-12-07T11:28:12;3.97;;;3.67;;
24729;SDS011;12832;52.392;13.066;2023-12-07T11:30:44;4.38;;;3.92;;
24729;SDS011;12832;52.392;13.066;2023-12-07T11:33:11;4.50;;;4.10;;
24729;SDS011;12832;52.392;13.066;2023-12-07T11:38:24;4.57;;;4.18;;
24729;SDS011;12832;52.392;13.066;2023-12-07T11:40:50;4.50;;;4.10;;
24729;SDS011;12832;52.392;13.066;2023-12-07T11:43:18;4.07;;;3.67;;
24729;SDS011;12832;52.392;13.066;2023-12-07T11:45:48;4.55;;;4.13;;
24729;SDS011;12832;52.392;13.066;2023-12-07T11:48:15;5.78;;;5.18;;
24729;SDS011;12832;52.392;13.066;2023-12-07T11:50:56;4.22;;;3.83;;
24729;SDS011;12832;52.392;13.066;2023-12-07T11:53:24;4.65;;;3.97;;
24729;SDS011;12832;52.392;13.066;2023-12-07T11:55:52;5.60;;;4.82;;
24729;SDS011;12832;52.392;13.066;2023-12-07T11:58:19;4.40;;;4.00;;
24729;SDS011;12832;52.392;13.066;2023-12-07T12:00:47;4.70;;;4.00;;
24729;SDS011;12832;52.392;13.066;2023-12-07T12:03:14;4.32;;;3.92;;
24729;SDS011;12832;52.392;13.066;2023-12-07T12:05:41;5.03;;;4.43;;
24729;SDS011;12832;52.392;13.066;2023-12-07T12:08:09;4.90;;;4.40;;
24729;SDS011;12832;52.392;13.066;2023-12-07T12:10:37;5.05;;;4.50;;
24729;SDS011;12832;52.392;13.066;2023-12-07T12:13:04;4.93;;;4.45;;
24729;SDS011;12832;52.392;13.066;2023-12-07T12:15:31;4.85;;;4.28;;
24729;SDS011;12832;52.392;13.066;2023-12-07T12:17:57;4.80;;;4.35;;
24729;SDS011;12832;52.392;13.066;2023-12-07T12:20:25;4.82;;;4.30;;
24729;SDS011;12832;52.392;13.066;2023-12-07T12:22:52;4.78;;;4.00;;
24729;SDS011;12832;52.392;13.066;2023-12-07T12:25:20;5.97;;;4.55;;
24729;SDS011;12832;52.392;13.066;2023-12-07T12:27:48;6.45;;;5.60;;
24729;SDS011;12832;52.392;13.066;2023-12-07T12:30:15;5.88;;;5.28;;
24729;SDS011;12832;52.392;13.066;2023-12-07T12:32:43;6.30;;;5.35;;
24729;SDS011;12832;52.392;13.066;2023-12-07T12:35:10;6.47;;;5.05;;
24729;SDS011;12832;52.392;13.066;2023-12-07T12:37:39;5.18;;;4.57;;
24729;SDS011;12832;52.392;13.066;2023-12-07T12:40:06;5.32;;;4.35;;
24729;SDS011;12832;52.392;13.066;2023-12-07T12:42:33;6.20;;;5.55;;
24729;SDS011;12832;52.392;13.066;2023-12-07T12:45:00;5.93;;;4.60;;
24729;SDS011;12832;52.392;13.066;2023-12-07T12:47:26;5.22;;;4.35;;
24729;SDS011;12832;52.392;13.066;2023-12-07T12:49:53;5.28;;;4.78;;
24729;SDS011;12832;52.392;13.066;2023-12-07T12:52:20;4.85;;;4.40;;
24729;SDS011;12832;52.392;13.066;2023-12-07T12:54:47;5.28;;;4.65;;
24729;SDS011;12832;52.392;13.066;2023-12-07T12:57:14;6.45;;;4.30;;
24729;SDS011;12832;52.392;13.066;2023-12-07T12:59:42;6.38;;;4.60;;
24729;SDS011;12832;52.392;13.066;2023-12-07T13:02:08;5.60;;;4.40;;
24729;SDS011;12832;52.392;13.066;2023-12-07T13:04:36;5.55;;;4.40;;
24729;SDS011;12832;52.392;13.066;2023-12-07T13:07:07;6.43;;;5.43;;
24729;SDS011;12832;52.392;13.066;2023-12-07T13:09:34;5.95;;;4.93;;
24729;SDS011;12832;52.392;13.066;2023-12-07T13:12:01;6.03;;;4.82;;
24729;SDS011;12832;52.392;13.066;2023-12-07T13:14:31;5.72;;;5.05;;
24729;SDS011;12832;52.392;13.066;2023-12-07T13:17:01;6.32;;;4.90;;
24729;SDS011;12832;52.392;13.066;2023-12-07T13:19:29;5.95;;;4.53;;
24729;SDS011;12832;52.392;13.066;2023-12-07T13:21:57;5.63;;;4.70;;
24729;SDS011;12832;52.392;13.066;2023-12-07T13:24:24;6.78;;;5.00;;
24729;SDS011;12832;52.392;13.066;2023-12-07T13:26:50;5.38;;;4.85;;
24729;SDS011;12832;52.392;13.066;2023-12-07T13:29:17;5.45;;;4.50;;
24729;SDS011;12832;52.392;13.066;2023-12-07T13:31:58;6.10;;;4.90;;
24729;SDS011;12832;52.392;13.066;2023-12-07T13:34:24;6.03;;;5.00;;
24729;SDS011;12832;52.392;13.066;2023-12-07T13:36:52;5.85;;;5.18;;
24729;SDS011;12832;52.392;13.066;2023-12-07T13:39:19;5.90;;;4.57;;
24729;SDS011;12832;52.392;13.066;2023-12-07T13:41:56;6.22;;;5.07;;
24729;SDS011;12832;52.392;13.066;2023-12-07T13:44:23;8.65;;;5.63;;
24729;SDS011;12832;52.392;13.066;2023-12-07T13:46:54;5.93;;;5.32;;
24729;SDS011;12832;52.392;13.066;2023-12-07T13:49:22;7.55;;;5.63;;
24729;SDS011;12832;52.392;13.066;2023-12-07T13:51:59;6.57;;;5.07;;
24729;SDS011;12832;52.392;13.066;2023-12-07T13:54:31;6.35;;;4.82;;
24729;SDS011;12832;52.392;13.066;2023-12-07T13:57:18;5.78;;;4.78;;
24729;SDS011;12832;52.392;13.066;2023-12-07T13:59:50;6.90;;;5.28;;
24729;SDS011;12832;52.392;13.066;2023-12-07T14:02:18;5.97;;;4.95;;
24729;SDS011;12832;52.392;13.066;2023-12-07T14:04:45;7.63;;;5.25;;
24729;SDS011;12832;52.392;13.066;2023-12-07T14:07:16;5.45;;;4.82;;
24729;SDS011;12832;52.392;13.066;2023-12-07T14:09:44;9.43;;;4.97;;
24729;SDS011;12832;52.392;13.066;2023-12-07T14:12:23;6.53;;;4.93;;
24729;SDS011;12832;52.392;13.066;2023-12-07T14:14:50;8.40;;;6.30;;
24729;SDS011;12832;52.392;13.066;2023-12-07T14:17:17;8.52;;;6.47;;
24729;SDS011;12832;52.392;13.066;2023-12-07T14:19:45;7.55;;;6.38;;
24729;SDS011;12832;52.392;13.066;2023-12-07T14:22:14;10.75;;;6.80;;
24729;SDS011;12832;52.392;13.066;2023-12-07T14:24:41;8.65;;;6.72;;
24729;SDS011;12832;52.392;13.066;2023-12-07T14:27:08;9.15;;;6.88;;
24729;SDS011;12832;52.392;13.066;2023-12-07T14:29:35;7.47;;;6.20;;
24729;SDS011;12832;52.392;13.066;2023-12-07T14:32:01;6.78;;;5.38;;
24729;SDS011;12832;52.392;13.066;2023-12-07T14:34:30;7.60;;;5.95;;
24729;SDS011;12832;52.392;13.066;2023-12-07T14:37:01;7.47;;;5.40;;
24729;SDS011;12832;52.392;13.066;2023-12-07T14:39:30;7.38;;;5.93;;
24729;SDS011;12832;52.392;13.066;2023-12-07T14:41:57;7.72;;;5.22;;